sensor_id;sensor_type;location;lat;lon;timestamp;temperature;humidity
24678;DHT22;12800;53.094;8.778;2023-04-21T00:02:21;10.60;79.60
24678;DHT22;12800;53.094;8.778;2023-04-21T00:04:47;10.60;79.50
24678;DHT22;12800;53.094;8.778;2023-04-21T00:07:14;10.50;79.60
24678;DHT22;12800;53.094;8.778;2023-04-21T00:09:40;10.50;79.80
24678;DHT22;12800;53.094;8.778;2023-04-21T00:12:06;10.50;79.70
24678;DHT22;12800;53.094;8.778;2023-04-21T00:14:32;10.50;79.70
24678;DHT22;12800;53.094;8.778;2023-04-21T00:16:57;10.50;79.80
24678;DHT22;12800;53.094;8.778;2023-04-21T00:19:24;10.40;79.80
24678;DHT22;12800;53.094;8.778;2023-04-21T00:21:50;10.50;79.80
24678;DHT22;12800;53.094;8.778;2023-04-21T00:24:16;10.40;79.80
24678;DHT22;12800;53.094;8.778;2023-04-21T00:26:41;10.40;79.80
24678;DHT22;12800;53.094;8.778;2023-04-21T00:29:07;10.40;79.70
24678;DHT22;12800;53.094;8.778;2023-04-21T00:31:33;10.40;79.90
24678;DHT22;12800;53.094;8.778;2023-04-21T00:33:58;10.40;79.90
24678;DHT22;12800;53.094;8.778;2023-04-21T00:36:24;10.40;79.80
24678;DHT22;12800;53.094;8.778;2023-04-21T00:38:52;10.40;79.90
24678;DHT22;12800;53.094;8.778;2023-04-21T00:41:18;10.30;80.00
24678;DHT22;12800;53.094;8.778;2023-04-21T00:44:06;10.40;80.00
24678;DHT22;12800;53.094;8.778;2023-04-21T00:46:33;10.40;80.00
24678;DHT22;12800;53.094;8.778;2023-04-21T00:48:59;10.40;80.00
24678;DHT22;12800;53.094;8.778;2023-04-21T00:51:27;10.40;79.90
24678;DHT22;12800;53.094;8.778;2023-04-21T00:53:54;10.40;79.80
24678;DHT22;12800;53.094;8.778;2023-04-21T00:56:21;10.40;79.80
24678;DHT22;12800;53.094;8.778;2023-04-21T00:58:47;10.40;79.80
24678;DHT22;12800;53.094;8.778;2023-04-21T01:01:13;10.40;79.80
24678;DHT22;12800;53.094;8.778;2023-04-21T01:03:39;10.30;79.80
24678;DHT22;12800;53.094;8.778;2023-04-21T01:06:05;10.30;79.90
24678;DHT22;12800;53.094;8.778;2023-04-21T01:08:32;10.30;79.80
24678;DHT22;12800;53.094;8.778;2023-04-21T01:10:57;10.30;79.80
24678;DHT22;12800;53.094;8.778;2023-04-21T01:13:23;10.30;79.80
24678;DHT22;12800;53.094;8.778;2023-04-21T01:15:49;10.30;79.90
24678;DHT22;12800;53.094;8.778;2023-04-21T01:18:15;10.30;79.90
24678;DHT22;12800;53.094;8.778;2023-04-21T01:20:42;10.20;79.80
24678;DHT22;12800;53.094;8.778;2023-04-21T01:23:09;10.20;79.80
24678;DHT22;12800;53.094;8.778;2023-04-21T01:25:35;10.20;79.80
24678;DHT22;12800;53.094;8.778;2023-04-21T01:28:01;10.20;80.00
24678;DHT22;12800;53.094;8.778;2023-04-21T01:30:27;10.20;79.90
24678;DHT22;12800;53.094;8.778;2023-04-21T01:32:53;10.20;79.90
24678;DHT22;12800;53.094;8.778;2023-04-21T01:35:18;10.20;79.90
24678;DHT22;12800;53.094;8.778;2023-04-21T01:37:44;10.10;79.80
24678;DHT22;12800;53.094;8.778;2023-04-21T01:40:10;10.10;79.80
24678;DHT22;12800;53.094;8.778;2023-04-21T01:42:39;10.10;79.80
24678;DHT22;12800;53.094;8.778;2023-04-21T01:45:06;10.10;79.80
24678;DHT22;12800;53.094;8.778;2023-04-21T01:47:32;10.10;79.80
24678;DHT22;12800;53.094;8.778;2023-04-21T01:49:57;10.00;79.90
24678;DHT22;12800;53.094;8.778;2023-04-21T01:52:23;10.00;79.90
24678;DHT22;12800;53.094;8.778;2023-04-21T01:54:49;10.00;79.90
24678;DHT22;12800;53.094;8.778;2023-04-21T01:57:15;10.00;80.10
24678;DHT22;12800;53.094;8.778;2023-04-21T01:59:41;10.00;80.20
24678;DHT22;12800;53.094;8.778;2023-04-21T02:02:07;10.00;80.20
24678;DHT22;12800;53.094;8.778;2023-04-21T02:04:33;10.00;80.20
24678;DHT22;12800;53.094;8.778;2023-04-21T02:06:58;10.00;80.20
24678;DHT22;12800;53.094;8.778;2023-04-21T02:09:24;10.00;80.20
24678;DHT22;12800;53.094;8.778;2023-04-21T02:11:50;10.00;80.10
24678;DHT22;12800;53.094;8.778;2023-04-21T02:14:15;10.00;80.10
24678;DHT22;12800;53.094;8.778;2023-04-21T02:16:41;10.00;80.10
24678;DHT22;12800;53.094;8.778;2023-04-21T02:19:07;10.00;80.10
24678;DHT22;12800;53.094;8.778;2023-04-21T02:21:33;10.00;80.20
24678;DHT22;12800;53.094;8.778;2023-04-21T02:23:58;10.00;80.10
24678;DHT22;12800;53.094;8.778;2023-04-21T02:26:24;10.00;80.10
24678;DHT22;12800;53.094;8.778;2023-04-21T02:28:50;10.00;80.00
24678;DHT22;12800;53.094;8.778;2023-04-21T02:31:16;10.00;80.10
24678;DHT22;12800;53.094;8.778;2023-04-21T02:33:43;10.00;80.10
24678;DHT22;12800;53.094;8.778;2023-04-21T02:36:09;10.00;80.10
24678;DHT22;12800;53.094;8.778;2023-04-21T02:38:35;10.00;80.10
24678;DHT22;12800;53.094;8.778;2023-04-21T02:41:00;10.00;80.10
24678;DHT22;12800;53.094;8.778;2023-04-21T02:43:26;10.00;80.10
24678;DHT22;12800;53.094;8.778;2023-04-21T02:45:51;9.90;80.00
24678;DHT22;12800;53.094;8.778;2023-04-21T02:48:17;9.90;80.80
24678;DHT22;12800;53.094;8.778;2023-04-21T02:50:50;9.90;80.10
24678;DHT22;12800;53.094;8.778;2023-04-21T02:53:18;9.90;80.10
24678;DHT22;12800;53.094;8.778;2023-04-21T02:55:43;9.90;80.10
24678;DHT22;12800;53.094;8.778;2023-04-21T02:58:09;9.90;80.10
24678;DHT22;12800;53.094;8.778;2023-04-21T03:00:35;9.90;80.10
24678;DHT22;12800;53.094;8.778;2023-04-21T03:03:02;9.90;80.10
24678;DHT22;12800;53.094;8.778;2023-04-21T03:05:27;9.90;80.20
24678;DHT22;12800;53.094;8.778;2023-04-21T03:07:53;9.90;80.20
24678;DHT22;12800;53.094;8.778;2023-04-21T03:10:18;9.90;80.10
24678;DHT22;12800;53.094;8.778;2023-04-21T03:12:44;9.80;80.10
24678;DHT22;12800;53.094;8.778;2023-04-21T03:15:10;9.80;80.20
24678;DHT22;12800;53.094;8.778;2023-04-21T03:17:37;9.80;80.20
24678;DHT22;12800;53.094;8.778;2023-04-21T03:20:03;9.90;80.30
24678;DHT22;12800;53.094;8.778;2023-04-21T03:22:35;9.80;80.30
24678;DHT22;12800;53.094;8.778;2023-04-21T03:25:01;9.80;80.20
24678;DHT22;12800;53.094;8.778;2023-04-21T03:27:26;9.80;80.20
24678;DHT22;12800;53.094;8.778;2023-04-21T03:29:52;9.80;80.30
24678;DHT22;12800;53.094;8.778;2023-04-21T03:32:18;9.80;80.10
24678;DHT22;12800;53.094;8.778;2023-04-21T03:34:43;9.90;80.30
24678;DHT22;12800;53.094;8.778;2023-04-21T03:37:09;9.90;80.20
24678;DHT22;12800;53.094;8.778;2023-04-21T03:39:34;9.90;80.10
24678;DHT22;12800;53.094;8.778;2023-04-21T03:42:00;9.90;80.10
24678;DHT22;12800;53.094;8.778;2023-04-21T03:44:26;9.90;80.20
24678;DHT22;12800;53.094;8.778;2023-04-21T03:46:53;9.90;80.20
24678;DHT22;12800;53.094;8.778;2023-04-21T03:49:20;9.90;80.20
24678;DHT22;12800;53.094;8.778;2023-04-21T03:51:45;9.80;80.20
24678;DHT22;12800;53.094;8.778;2023-04-21T03:54:11;9.80;80.20
24678;DHT22;12800;53.094;8.778;2023-04-21T03:56:37;9.80;80.20
24678;DHT22;12800;53.094;8.778;2023-04-21T03:59:03;9.80;80.20
24678;DHT22;12800;53.094;8.778;2023-04-21T04:01:28;9.80;80.20
24678;DHT22;12800;53.094;8.778;2023-04-21T04:03:54;9.80;80.20
24678;DHT22;12800;53.094;8.778;2023-04-21T04:06:20;9.90;80.20
24678;DHT22;12800;53.094;8.778;2023-04-21T04:08:46;9.90;80.20
24678;DHT22;12800;53.094;8.778;2023-04-21T04:11:11;9.90;80.20
24678;DHT22;12800;53.094;8.778;2023-04-21T04:13:37;9.90;80.10
24678;DHT22;12800;53.094;8.778;2023-04-21T04:16:03;9.90;80.00
24678;DHT22;12800;53.094;8.778;2023-04-21T04:18:28;9.90;80.00
24678;DHT22;12800;53.094;8.778;2023-04-21T04:20:54;9.90;80.00
24678;DHT22;12800;53.094;8.778;2023-04-21T04:23:20;9.90;80.00
24678;DHT22;12800;53.094;8.778;2023-04-21T04:25:46;9.90;80.00
24678;DHT22;12800;53.094;8.778;2023-04-21T04:28:12;9.90;80.00
24678;DHT22;12800;53.094;8.778;2023-04-21T04:30:39;9.90;80.00
24678;DHT22;12800;53.094;8.778;2023-04-21T04:33:06;9.90;80.00
24678;DHT22;12800;53.094;8.778;2023-04-21T04:35:31;9.90;80.00
24678;DHT22;12800;53.094;8.778;2023-04-21T04:37:57;9.90;80.00
24678;DHT22;12800;53.094;8.778;2023-04-21T04:40:23;10.00;79.90
24678;DHT22;12800;53.094;8.778;2023-04-21T04:42:49;10.00;79.90
24678;DHT22;12800;53.094;8.778;2023-04-21T04:45:16;10.00;79.90
24678;DHT22;12800;53.094;8.778;2023-04-21T04:47:41;9.90;79.70
24678;DHT22;12800;53.094;8.778;2023-04-21T04:50:08;9.90;79.90
24678;DHT22;12800;53.094;8.778;2023-04-21T04:52:33;10.00;79.80
24678;DHT22;12800;53.094;8.778;2023-04-21T04:54:59;10.00;79.90
24678;DHT22;12800;53.094;8.778;2023-04-21T04:57:25;10.00;79.70
24678;DHT22;12800;53.094;8.778;2023-04-21T04:59:54;10.00;79.70
24678;DHT22;12800;53.094;8.778;2023-04-21T05:02:20;10.00;79.70
24678;DHT22;12800;53.094;8.778;2023-04-21T05:04:50;10.00;79.70
24678;DHT22;12800;53.094;8.778;2023-04-21T05:07:16;10.00;79.60
24678;DHT22;12800;53.094;8.778;2023-04-21T05:09:42;10.00;79.60
24678;DHT22;12800;53.094;8.778;2023-04-21T05:12:07;10.00;79.60
24678;DHT22;12800;53.094;8.778;2023-04-21T05:14:33;10.10;79.60
24678;DHT22;12800;53.094;8.778;2023-04-21T05:16:58;10.10;79.60
24678;DHT22;12800;53.094;8.778;2023-04-21T05:19:24;10.10;79.60
24678;DHT22;12800;53.094;8.778;2023-04-21T05:21:50;10.10;79.50
24678;DHT22;12800;53.094;8.778;2023-04-21T05:24:16;10.20;79.60
24678;DHT22;12800;53.094;8.778;2023-04-21T05:26:47;10.20;80.30
24678;DHT22;12800;53.094;8.778;2023-04-21T05:29:13;10.20;79.50
24678;DHT22;12800;53.094;8.778;2023-04-21T05:31:39;10.30;79.30
24678;DHT22;12800;53.094;8.778;2023-04-21T05:34:04;10.30;79.30
24678;DHT22;12800;53.094;8.778;2023-04-21T05:36:30;10.30;79.30
24678;DHT22;12800;53.094;8.778;2023-04-21T05:38:56;10.30;79.30
24678;DHT22;12800;53.094;8.778;2023-04-21T05:41:22;10.30;79.30
24678;DHT22;12800;53.094;8.778;2023-04-21T05:43:48;10.40;79.30
24678;DHT22;12800;53.094;8.778;2023-04-21T05:46:14;10.40;79.10
24678;DHT22;12800;53.094;8.778;2023-04-21T05:48:39;10.40;79.00
24678;DHT22;12800;53.094;8.778;2023-04-21T05:51:09;10.40;79.00
24678;DHT22;12800;53.094;8.778;2023-04-21T05:53:36;10.50;79.00
24678;DHT22;12800;53.094;8.778;2023-04-21T05:56:02;10.60;78.90
24678;DHT22;12800;53.094;8.778;2023-04-21T05:58:28;10.60;78.90
24678;DHT22;12800;53.094;8.778;2023-04-21T06:00:53;10.60;78.80
24678;DHT22;12800;53.094;8.778;2023-04-21T06:03:19;10.70;78.60
24678;DHT22;12800;53.094;8.778;2023-04-21T06:05:45;10.70;78.60
24678;DHT22;12800;53.094;8.778;2023-04-21T06:08:11;10.70;78.40
24678;DHT22;12800;53.094;8.778;2023-04-21T06:10:37;10.80;78.30
24678;DHT22;12800;53.094;8.778;2023-04-21T06:13:03;10.90;78.30
24678;DHT22;12800;53.094;8.778;2023-04-21T06:15:28;10.90;78.20
24678;DHT22;12800;53.094;8.778;2023-04-21T06:17:54;10.90;78.10
24678;DHT22;12800;53.094;8.778;2023-04-21T06:20:20;11.00;78.00
24678;DHT22;12800;53.094;8.778;2023-04-21T06:22:45;11.00;78.70
24678;DHT22;12800;53.094;8.778;2023-04-21T06:25:11;11.10;77.80
24678;DHT22;12800;53.094;8.778;2023-04-21T06:27:36;11.10;77.70
24678;DHT22;12800;53.094;8.778;2023-04-21T06:30:02;11.10;77.60
24678;DHT22;12800;53.094;8.778;2023-04-21T06:32:28;11.20;77.60
24678;DHT22;12800;53.094;8.778;2023-04-21T06:34:53;11.30;77.60
24678;DHT22;12800;53.094;8.778;2023-04-21T06:37:19;11.30;78.30
24678;DHT22;12800;53.094;8.778;2023-04-21T06:39:44;11.30;77.20
24678;DHT22;12800;53.094;8.778;2023-04-21T06:42:10;11.40;77.10
24678;DHT22;12800;53.094;8.778;2023-04-21T06:44:36;11.40;77.00
24678;DHT22;12800;53.094;8.778;2023-04-21T06:47:02;11.50;77.00
24678;DHT22;12800;53.094;8.778;2023-04-21T06:49:28;11.50;77.70
24678;DHT22;12800;53.094;8.778;2023-04-21T06:51:54;11.60;76.70
24678;DHT22;12800;53.094;8.778;2023-04-21T06:54:19;11.60;76.50
24678;DHT22;12800;53.094;8.778;2023-04-21T06:56:45;11.70;76.50
24678;DHT22;12800;53.094;8.778;2023-04-21T06:59:11;11.70;76.30
24678;DHT22;12800;53.094;8.778;2023-04-21T07:01:36;11.80;76.30
24678;DHT22;12800;53.094;8.778;2023-04-21T07:04:02;11.90;76.20
24678;DHT22;12800;53.094;8.778;2023-04-21T07:06:29;11.90;76.10
24678;DHT22;12800;53.094;8.778;2023-04-21T07:08:56;12.00;76.00
24678;DHT22;12800;53.094;8.778;2023-04-21T07:11:22;12.00;75.80
24678;DHT22;12800;53.094;8.778;2023-04-21T07:13:47;12.10;75.80
24678;DHT22;12800;53.094;8.778;2023-04-21T07:16:13;12.10;75.60
24678;DHT22;12800;53.094;8.778;2023-04-21T07:18:39;12.20;75.60
24678;DHT22;12800;53.094;8.778;2023-04-21T07:21:05;12.30;75.40
24678;DHT22;12800;53.094;8.778;2023-04-21T07:23:30;12.30;75.20
24678;DHT22;12800;53.094;8.778;2023-04-21T07:25:56;12.40;75.90
24678;DHT22;12800;53.094;8.778;2023-04-21T07:28:22;12.40;75.00
24678;DHT22;12800;53.094;8.778;2023-04-21T07:30:47;12.50;74.20
24678;DHT22;12800;53.094;8.778;2023-04-21T07:33:13;12.60;74.80
24678;DHT22;12800;53.094;8.778;2023-04-21T07:35:39;12.70;74.80
24678;DHT22;12800;53.094;8.778;2023-04-21T07:38:04;12.70;74.60
24678;DHT22;12800;53.094;8.778;2023-04-21T07:40:30;12.80;74.60
24678;DHT22;12800;53.094;8.778;2023-04-21T07:42:56;12.90;74.40
24678;DHT22;12800;53.094;8.778;2023-04-21T07:45:21;13.00;74.40
24678;DHT22;12800;53.094;8.778;2023-04-21T07:47:47;13.10;74.10
24678;DHT22;12800;53.094;8.778;2023-04-21T07:50:13;13.20;74.00
24678;DHT22;12800;53.094;8.778;2023-04-21T07:52:38;13.30;73.80
24678;DHT22;12800;53.094;8.778;2023-04-21T07:55:04;13.40;73.70
24678;DHT22;12800;53.094;8.778;2023-04-21T07:57:30;13.50;73.40
24678;DHT22;12800;53.094;8.778;2023-04-21T07:59:58;13.60;73.30
24678;DHT22;12800;53.094;8.778;2023-04-21T08:02:23;13.60;72.70
24678;DHT22;12800;53.094;8.778;2023-04-21T08:04:49;13.70;72.30
24678;DHT22;12800;53.094;8.778;2023-04-21T08:07:15;13.80;72.10
24678;DHT22;12800;53.094;8.778;2023-04-21T08:09:40;13.80;72.00
24678;DHT22;12800;53.094;8.778;2023-04-21T08:12:06;13.90;71.90
24678;DHT22;12800;53.094;8.778;2023-04-21T08:14:32;14.00;71.80
24678;DHT22;12800;53.094;8.778;2023-04-21T08:16:58;14.10;71.50
24678;DHT22;12800;53.094;8.778;2023-04-21T08:19:24;14.10;71.40
24678;DHT22;12800;53.094;8.778;2023-04-21T08:21:50;14.20;71.20
24678;DHT22;12800;53.094;8.778;2023-04-21T08:24:15;14.30;71.20
24678;DHT22;12800;53.094;8.778;2023-04-21T08:26:41;14.40;70.60
24678;DHT22;12800;53.094;8.778;2023-04-21T08:29:07;14.50;70.10
24678;DHT22;12800;53.094;8.778;2023-04-21T08:31:35;14.50;69.90
24678;DHT22;12800;53.094;8.778;2023-04-21T08:34:00;14.60;69.80
24678;DHT22;12800;53.094;8.778;2023-04-21T08:36:27;14.60;69.50
24678;DHT22;12800;53.094;8.778;2023-04-21T08:38:53;14.70;69.30
24678;DHT22;12800;53.094;8.778;2023-04-21T08:41:19;14.70;69.10
24678;DHT22;12800;53.094;8.778;2023-04-21T08:43:46;14.80;69.10
24678;DHT22;12800;53.094;8.778;2023-04-21T08:46:12;14.90;68.80
24678;DHT22;12800;53.094;8.778;2023-04-21T08:48:39;15.00;68.40
24678;DHT22;12800;53.094;8.778;2023-04-21T08:51:08;15.10;68.40
24678;DHT22;12800;53.094;8.778;2023-04-21T08:53:35;15.20;68.20
24678;DHT22;12800;53.094;8.778;2023-04-21T08:56:02;15.30;68.40
24678;DHT22;12800;53.094;8.778;2023-04-21T08:58:28;15.40;67.80
24678;DHT22;12800;53.094;8.778;2023-04-21T09:00:54;15.50;67.50
24678;DHT22;12800;53.094;8.778;2023-04-21T09:03:26;15.50;67.30
24678;DHT22;12800;53.094;8.778;2023-04-21T09:06:06;15.60;67.20
24678;DHT22;12800;53.094;8.778;2023-04-21T09:08:33;15.70;67.20
24678;DHT22;12800;53.094;8.778;2023-04-21T09:10:59;15.80;66.90
24678;DHT22;12800;53.094;8.778;2023-04-21T09:13:33;15.90;66.30
24678;DHT22;12800;53.094;8.778;2023-04-21T09:16:00;16.00;66.00
24678;DHT22;12800;53.094;8.778;2023-04-21T09:18:28;16.00;65.60
24678;DHT22;12800;53.094;8.778;2023-04-21T09:21:11;16.20;65.20
24678;DHT22;12800;53.094;8.778;2023-04-21T09:23:44;16.20;65.10
24678;DHT22;12800;53.094;8.778;2023-04-21T09:26:10;16.30;65.00
24678;DHT22;12800;53.094;8.778;2023-04-21T09:28:39;16.40;64.50
24678;DHT22;12800;53.094;8.778;2023-04-21T09:31:21;16.50;64.10
24678;DHT22;12800;53.094;8.778;2023-04-21T09:33:52;16.60;63.90
24678;DHT22;12800;53.094;8.778;2023-04-21T09:36:20;16.70;63.50
24678;DHT22;12800;53.094;8.778;2023-04-21T09:39:00;16.80;62.90
24678;DHT22;12800;53.094;8.778;2023-04-21T09:41:26;16.90;62.90
24678;DHT22;12800;53.094;8.778;2023-04-21T09:43:52;17.00;62.60
24678;DHT22;12800;53.094;8.778;2023-04-21T09:46:18;17.00;62.40
24678;DHT22;12800;53.094;8.778;2023-04-21T09:48:46;17.10;62.40
24678;DHT22;12800;53.094;8.778;2023-04-21T09:51:12;17.20;61.70
24678;DHT22;12800;53.094;8.778;2023-04-21T09:53:39;17.30;60.90
24678;DHT22;12800;53.094;8.778;2023-04-21T09:56:10;17.30;61.10
24678;DHT22;12800;53.094;8.778;2023-04-21T09:58:40;17.40;60.00
24678;DHT22;12800;53.094;8.778;2023-04-21T10:01:08;17.50;59.80
24678;DHT22;12800;53.094;8.778;2023-04-21T10:03:34;17.60;59.60
24678;DHT22;12800;53.094;8.778;2023-04-21T10:06:03;17.60;59.20
24678;DHT22;12800;53.094;8.778;2023-04-21T10:08:29;17.70;59.30
24678;DHT22;12800;53.094;8.778;2023-04-21T10:10:55;17.80;59.10
24678;DHT22;12800;53.094;8.778;2023-04-21T10:13:22;17.90;58.60
24678;DHT22;12800;53.094;8.778;2023-04-21T10:15:48;18.00;58.60
24678;DHT22;12800;53.094;8.778;2023-04-21T10:18:25;18.10;57.90
24678;DHT22;12800;53.094;8.778;2023-04-21T10:20:57;18.10;57.80
24678;DHT22;12800;53.094;8.778;2023-04-21T10:26:01;18.30;57.40
24678;DHT22;12800;53.094;8.778;2023-04-21T10:28:41;18.40;56.90
24678;DHT22;12800;53.094;8.778;2023-04-21T10:31:17;18.40;56.80
24678;DHT22;12800;53.094;8.778;2023-04-21T10:36:34;18.70;55.70
24678;DHT22;12800;53.094;8.778;2023-04-21T10:39:01;18.80;55.80
24678;DHT22;12800;53.094;8.778;2023-04-21T10:41:34;18.90;55.50
24678;DHT22;12800;53.094;8.778;2023-04-21T10:44:13;18.90;55.20
24678;DHT22;12800;53.094;8.778;2023-04-21T10:46:45;19.00;55.10
24678;DHT22;12800;53.094;8.778;2023-04-21T10:49:20;19.00;54.80
24678;DHT22;12800;53.094;8.778;2023-04-21T10:57:17;19.30;53.40
24678;DHT22;12800;53.094;8.778;2023-04-21T10:59:44;19.40;52.20
24678;DHT22;12800;53.094;8.778;2023-04-21T11:02:12;19.50;51.70
24678;DHT22;12800;53.094;8.778;2023-04-21T11:04:38;19.60;51.20
24678;DHT22;12800;53.094;8.778;2023-04-21T11:07:10;19.70;51.00
24678;DHT22;12800;53.094;8.778;2023-04-21T11:09:37;19.80;51.10
24678;DHT22;12800;53.094;8.778;2023-04-21T11:12:06;19.90;50.50
24678;DHT22;12800;53.094;8.778;2023-04-21T11:14:33;19.90;50.10
24678;DHT22;12800;53.094;8.778;2023-04-21T11:17:00;20.00;49.90
24678;DHT22;12800;53.094;8.778;2023-04-21T11:19:26;20.10;49.30
24678;DHT22;12800;53.094;8.778;2023-04-21T11:21:53;20.20;48.60
24678;DHT22;12800;53.094;8.778;2023-04-21T11:24:21;20.20;48.90
24678;DHT22;12800;53.094;8.778;2023-04-21T11:26:47;20.20;48.50
24678;DHT22;12800;53.094;8.778;2023-04-21T11:29:13;20.20;47.70
24678;DHT22;12800;53.094;8.778;2023-04-21T11:31:41;20.10;47.60
24678;DHT22;12800;53.094;8.778;2023-04-21T11:34:08;20.10;47.50
24678;DHT22;12800;53.094;8.778;2023-04-21T11:36:38;20.10;47.40
24678;DHT22;12800;53.094;8.778;2023-04-21T11:39:06;20.10;47.10
24678;DHT22;12800;53.094;8.778;2023-04-21T11:41:35;20.20;47.00
24678;DHT22;12800;53.094;8.778;2023-04-21T11:44:03;20.20;46.70
24678;DHT22;12800;53.094;8.778;2023-04-21T11:46:29;20.30;46.60
24678;DHT22;12800;53.094;8.778;2023-04-21T11:49:06;20.40;46.60
24678;DHT22;12800;53.094;8.778;2023-04-21T11:54:01;20.60;46.70
24678;DHT22;12800;53.094;8.778;2023-04-21T11:56:27;20.70;46.30
24678;DHT22;12800;53.094;8.778;2023-04-21T11:58:52;20.80;45.80
24678;DHT22;12800;53.094;8.778;2023-04-21T12:01:19;20.90;45.60
24678;DHT22;12800;53.094;8.778;2023-04-21T12:03:53;20.80;45.40
24678;DHT22;12800;53.094;8.778;2023-04-21T12:06:20;20.80;45.60
24678;DHT22;12800;53.094;8.778;2023-04-21T12:08:46;20.80;45.60
24678;DHT22;12800;53.094;8.778;2023-04-21T12:11:15;20.80;45.80
24678;DHT22;12800;53.094;8.778;2023-04-21T12:13:41;20.90;45.00
24678;DHT22;12800;53.094;8.778;2023-04-21T12:16:07;20.80;44.40
24678;DHT22;12800;53.094;8.778;2023-04-21T12:18:35;20.90;44.70
24678;DHT22;12800;53.094;8.778;2023-04-21T12:21:01;20.90;44.80
24678;DHT22;12800;53.094;8.778;2023-04-21T12:23:27;21.00;44.60
24678;DHT22;12800;53.094;8.778;2023-04-21T12:25:53;21.10;44.30
24678;DHT22;12800;53.094;8.778;2023-04-21T12:28:19;21.20;43.90
24678;DHT22;12800;53.094;8.778;2023-04-21T12:30:45;21.30;43.50
24678;DHT22;12800;53.094;8.778;2023-04-21T12:33:11;21.40;43.70
24678;DHT22;12800;53.094;8.778;2023-04-21T12:35:37;21.50;43.30
24678;DHT22;12800;53.094;8.778;2023-04-21T12:38:03;21.60;43.20
24678;DHT22;12800;53.094;8.778;2023-04-21T12:40:29;21.70;43.30
24678;DHT22;12800;53.094;8.778;2023-04-21T12:42:54;21.80;43.30
24678;DHT22;12800;53.094;8.778;2023-04-21T12:45:20;21.90;41.90
24678;DHT22;12800;53.094;8.778;2023-04-21T12:47:46;22.00;41.10
24678;DHT22;12800;53.094;8.778;2023-04-21T12:50:12;22.10;40.30
24678;DHT22;12800;53.094;8.778;2023-04-21T12:52:38;22.10;40.30
24678;DHT22;12800;53.094;8.778;2023-04-21T12:55:04;22.20;40.20
24678;DHT22;12800;53.094;8.778;2023-04-21T12:57:30;22.20;40.30
24678;DHT22;12800;53.094;8.778;2023-04-21T12:59:56;22.20;40.30
24678;DHT22;12800;53.094;8.778;2023-04-21T13:02:22;22.30;40.20
24678;DHT22;12800;53.094;8.778;2023-04-21T13:04:47;22.30;39.90
24678;DHT22;12800;53.094;8.778;2023-04-21T13:07:13;22.30;39.60
24678;DHT22;12800;53.094;8.778;2023-04-21T13:09:40;22.30;39.70
24678;DHT22;12800;53.094;8.778;2023-04-21T13:12:06;22.40;40.20
24678;DHT22;12800;53.094;8.778;2023-04-21T13:14:32;22.40;39.00
24678;DHT22;12800;53.094;8.778;2023-04-21T13:16:58;22.40;39.20
24678;DHT22;12800;53.094;8.778;2023-04-21T13:19:23;22.50;39.30
24678;DHT22;12800;53.094;8.778;2023-04-21T13:21:52;22.50;39.30
24678;DHT22;12800;53.094;8.778;2023-04-21T13:24:18;22.60;39.30
24678;DHT22;12800;53.094;8.778;2023-04-21T13:26:44;22.70;39.40
24678;DHT22;12800;53.094;8.778;2023-04-21T13:29:10;22.80;39.10
24678;DHT22;12800;53.094;8.778;2023-04-21T13:31:35;22.80;38.50
24678;DHT22;12800;53.094;8.778;2023-04-21T13:34:01;22.90;38.70
24678;DHT22;12800;53.094;8.778;2023-04-21T13:36:28;23.00;38.60
24678;DHT22;12800;53.094;8.778;2023-04-21T13:38:53;23.10;39.20
24678;DHT22;12800;53.094;8.778;2023-04-21T13:41:20;23.10;38.80
24678;DHT22;12800;53.094;8.778;2023-04-21T13:43:46;23.10;38.70
24678;DHT22;12800;53.094;8.778;2023-04-21T13:46:11;23.10;38.10
24678;DHT22;12800;53.094;8.778;2023-04-21T13:48:39;23.10;38.50
24678;DHT22;12800;53.094;8.778;2023-04-21T13:51:05;23.20;37.60
24678;DHT22;12800;53.094;8.778;2023-04-21T13:53:30;23.20;37.20
24678;DHT22;12800;53.094;8.778;2023-04-21T13:55:56;23.20;37.10
24678;DHT22;12800;53.094;8.778;2023-04-21T13:58:23;23.30;37.00
24678;DHT22;12800;53.094;8.778;2023-04-21T14:00:49;23.30;37.10
24678;DHT22;12800;53.094;8.778;2023-04-21T14:03:15;23.40;37.10
24678;DHT22;12800;53.094;8.778;2023-04-21T14:05:41;23.40;37.00
24678;DHT22;12800;53.094;8.778;2023-04-21T14:08:06;23.40;36.90
24678;DHT22;12800;53.094;8.778;2023-04-21T14:10:32;23.40;36.70
24678;DHT22;12800;53.094;8.778;2023-04-21T14:12:58;23.50;36.60
24678;DHT22;12800;53.094;8.778;2023-04-21T14:15:25;23.50;36.50
24678;DHT22;12800;53.094;8.778;2023-04-21T14:17:51;23.50;36.60
24678;DHT22;12800;53.094;8.778;2023-04-21T14:20:17;23.50;36.50
24678;DHT22;12800;53.094;8.778;2023-04-21T14:22:43;23.60;36.60
24678;DHT22;12800;53.094;8.778;2023-04-21T14:25:08;23.60;36.50
24678;DHT22;12800;53.094;8.778;2023-04-21T14:27:34;23.60;37.10
24678;DHT22;12800;53.094;8.778;2023-04-21T14:30:00;23.60;37.30
24678;DHT22;12800;53.094;8.778;2023-04-21T14:32:25;23.70;37.50
24678;DHT22;12800;53.094;8.778;2023-04-21T14:34:51;23.70;37.30
24678;DHT22;12800;53.094;8.778;2023-04-21T14:37:23;23.60;38.10
24678;DHT22;12800;53.094;8.778;2023-04-21T14:39:48;23.50;37.80
24678;DHT22;12800;53.094;8.778;2023-04-21T14:42:14;23.50;37.80
24678;DHT22;12800;53.094;8.778;2023-04-21T14:44:39;23.50;37.80
24678;DHT22;12800;53.094;8.778;2023-04-21T14:47:05;23.50;37.90
24678;DHT22;12800;53.094;8.778;2023-04-21T14:49:31;23.60;37.80
24678;DHT22;12800;53.094;8.778;2023-04-21T14:51:56;23.70;38.00
24678;DHT22;12800;53.094;8.778;2023-04-21T14:54:22;23.80;38.10
24678;DHT22;12800;53.094;8.778;2023-04-21T14:56:48;23.90;38.00
24678;DHT22;12800;53.094;8.778;2023-04-21T14:59:13;24.00;37.90
24678;DHT22;12800;53.094;8.778;2023-04-21T15:01:39;24.20;37.80
24678;DHT22;12800;53.094;8.778;2023-04-21T15:04:05;24.20;37.60
24678;DHT22;12800;53.094;8.778;2023-04-21T15:06:30;24.20;37.50
24678;DHT22;12800;53.094;8.778;2023-04-21T15:08:56;24.30;37.50
24678;DHT22;12800;53.094;8.778;2023-04-21T15:11:22;24.20;37.20
24678;DHT22;12800;53.094;8.778;2023-04-21T15:13:47;24.10;37.30
24678;DHT22;12800;53.094;8.778;2023-04-21T15:16:13;24.10;37.40
24678;DHT22;12800;53.094;8.778;2023-04-21T15:18:39;24.10;37.60
24678;DHT22;12800;53.094;8.778;2023-04-21T15:21:05;24.30;37.80
24678;DHT22;12800;53.094;8.778;2023-04-21T15:23:31;24.40;37.50
24678;DHT22;12800;53.094;8.778;2023-04-21T15:25:58;24.50;37.40
24678;DHT22;12800;53.094;8.778;2023-04-21T15:28:23;24.60;36.90
24678;DHT22;12800;53.094;8.778;2023-04-21T15:30:49;24.60;36.90
24678;DHT22;12800;53.094;8.778;2023-04-21T15:33:14;24.60;36.80
24678;DHT22;12800;53.094;8.778;2023-04-21T15:35:41;24.40;36.70
24678;DHT22;12800;53.094;8.778;2023-04-21T15:38:07;24.20;36.70
24678;DHT22;12800;53.094;8.778;2023-04-21T15:40:32;24.30;37.00
24678;DHT22;12800;53.094;8.778;2023-04-21T15:42:58;24.30;36.70